sensor_id;sensor_type;location;lat;lon;timestamp;P1;durP1;ratioP1;P2;durP2;ratioP2
46755;SDS011;32506;52.826;-1.192;2023-07-02T00:00:35;12.63;;;4.38;;
46755;SDS011;32506;52.826;-1.192;2023-07-02T00:03:03;11.45;;;4.43;;
46755;SDS011;32506;52.826;-1.192;2023-07-02T00:05:29;10.98;;;4.53;;
46755;SDS011;32506;52.826;-1.192;2023-07-02T00:07:54;12.70;;;4.57;;
46755;SDS011;32506;52.826;-1.192;2023-07-02T00:10:20;9.60;;;4.00;;
46755;SDS011;32506;52.826;-1.192;2023-07-02T00:12:45;11.20;;;4.00;;
46755;SDS011;32506;52.826;-1.192;2023-07-02T00:15:10;12.38;;;4.00;;
46755;SDS011;32506;52.826;-1.192;2023-07-02T00:17:36;10.93;;;4.25;;
46755;SDS011;32506;52.826;-1.192;2023-07-02T00:20:05;11.27;;;4.22;;
46755;SDS011;32506;52.826;-1.192;2023-07-02T00:22:40;18.25;;;4.85;;
46755;SDS011;32506;52.826;-1.192;2023-07-02T00:25:09;15.77;;;4.75;;
46755;SDS011;32506;52.826;-1.192;2023-07-02T00:27:35;13.35;;;4.68;;
46755;SDS011;32506;52.826;-1.192;2023-07-02T00:30:02;12.75;;;5.10;;
46755;SDS011;32506;52.826;-1.192;2023-07-02T00:32:28;12.50;;;4.72;;
46755;SDS011;32506;52.826;-1.192;2023-07-02T00:34:53;12.18;;;5.30;;
46755;SDS011;32506;52.826;-1.192;2023-07-02T00:37:19;12.20;;;4.50;;
46755;SDS011;32506;52.826;-1.192;2023-07-02T00:39:44;11.75;;;4.53;;
46755;SDS011;32506;52.826;-1.192;2023-07-02T00:42:09;13.82;;;4.60;;
46755;SDS011;32506;52.826;-1.192;2023-07-02T00:44:36;11.75;;;4.40;;
46755;SDS011;32506;52.826;-1.192;2023-07-02T00:47:06;10.60;;;4.45;;
46755;SDS011;32506;52.826;-1.192;2023-07-02T00:49:33;10.80;;;4.50;;
46755;SDS011;32506;52.826;-1.192;2023-07-02T00:51:58;14.43;;;4.95;;
46755;SDS011;32506;52.826;-1.192;2023-07-02T00:54:24;10.30;;;4.13;;
46755;SDS011;32506;52.826;-1.192;2023-07-02T00:56:53;13.77;;;5.00;;
46755;SDS011;32506;52.826;-1.192;2023-07-02T00:59:18;12.70;;;4.85;;
46755;SDS011;32506;52.826;-1.192;2023-07-02T01:01:44;14.57;;;4.85;;
46755;SDS011;32506;52.826;-1.192;2023-07-02T01:04:16;12.32;;;4.18;;
46755;SDS011;32506;52.826;-1.192;2023-07-02T01:06:42;12.10;;;4.47;;
46755;SDS011;32506;52.826;-1.192;2023-07-02T01:09:09;10.68;;;3.92;;
46755;SDS011;32506;52.826;-1.192;2023-07-02T01:14:12;13.20;;;4.70;;
46755;SDS011;32506;52.826;-1.192;2023-07-02T01:16:42;11.38;;;4.78;;
46755;SDS011;32506;52.826;-1.192;2023-07-02T01:19:19;11.95;;;4.50;;
46755;SDS011;32506;52.826;-1.192;2023-07-02T01:21:55;11.65;;;4.22;;
46755;SDS011;32506;52.826;-1.192;2023-07-02T01:24:20;14.35;;;4.25;;
46755;SDS011;32506;52.826;-1.192;2023-07-02T01:26:46;11.65;;;4.22;;
46755;SDS011;32506;52.826;-1.192;2023-07-02T01:29:18;10.10;;;3.90;;
46755;SDS011;32506;52.826;-1.192;2023-07-02T01:31:45;9.77;;;4.13;;
46755;SDS011;32506;52.826;-1.192;2023-07-02T01:34:12;10.63;;;4.22;;
46755;SDS011;32506;52.826;-1.192;2023-07-02T01:36:38;10.90;;;4.05;;
46755;SDS011;32506;52.826;-1.192;2023-07-02T01:39:03;11.68;;;4.07;;
46755;SDS011;32506;52.826;-1.192;2023-07-02T01:41:29;8.80;;;4.07;;
46755;SDS011;32506;52.826;-1.192;2023-07-02T01:43:55;16.27;;;4.60;;
46755;SDS011;32506;52.826;-1.192;2023-07-02T01:46:20;13.25;;;4.40;;
46755;SDS011;32506;52.826;-1.192;2023-07-02T01:48:46;11.93;;;5.20;;
46755;SDS011;32506;52.826;-1.192;2023-07-02T01:51:11;12.60;;;4.47;;
46755;SDS011;32506;52.826;-1.192;2023-07-02T01:53:38;14.02;;;4.65;;
46755;SDS011;32506;52.826;-1.192;2023-07-02T01:56:04;14.35;;;5.25;;
46755;SDS011;32506;52.826;-1.192;2023-07-02T01:58:30;13.35;;;4.03;;
46755;SDS011;32506;52.826;-1.192;2023-07-02T02:00:55;12.60;;;4.65;;
46755;SDS011;32506;52.826;-1.192;2023-07-02T02:03:21;13.88;;;3.85;;
46755;SDS011;32506;52.826;-1.192;2023-07-02T02:05:47;10.98;;;4.00;;
46755;SDS011;32506;52.826;-1.192;2023-07-02T02:08:13;11.05;;;3.75;;
46755;SDS011;32506;52.826;-1.192;2023-07-02T02:10:38;18.30;;;4.53;;
46755;SDS011;32506;52.826;-1.192;2023-07-02T02:13:04;11.02;;;3.97;;
46755;SDS011;32506;52.826;-1.192;2023-07-02T02:15:30;12.38;;;4.40;;
46755;SDS011;32506;52.826;-1.192;2023-07-02T02:17:55;11.18;;;4.38;;
46755;SDS011;32506;52.826;-1.192;2023-07-02T02:20:21;11.25;;;4.15;;
46755;SDS011;32506;52.826;-1.192;2023-07-02T02:22:46;13.20;;;4.93;;
46755;SDS011;32506;52.826;-1.192;2023-07-02T02:25:11;10.93;;;4.03;;
46755;SDS011;32506;52.826;-1.192;2023-07-02T02:27:37;12.32;;;4.25;;
46755;SDS011;32506;52.826;-1.192;2023-07-02T02:30:03;9.45;;;4.50;;
46755;SDS011;32506;52.826;-1.192;2023-07-02T02:32:29;13.70;;;4.82;;
46755;SDS011;32506;52.826;-1.192;2023-07-02T02:34:54;13.27;;;4.05;;
46755;SDS011;32506;52.826;-1.192;2023-07-02T02:37:20;11.48;;;4.40;;
46755;SDS011;32506;52.826;-1.192;2023-07-02T02:39:46;15.57;;;4.30;;
46755;SDS011;32506;52.826;-1.192;2023-07-02T02:42:12;10.63;;;4.05;;
46755;SDS011;32506;52.826;-1.192;2023-07-02T02:44:38;10.98;;;4.45;;
46755;SDS011;32506;52.826;-1.192;2023-07-02T02:47:03;10.30;;;4.18;;
46755;SDS011;32506;52.826;-1.192;2023-07-02T02:49:30;10.10;;;4.10;;
46755;SDS011;32506;52.826;-1.192;2023-07-02T02:51:56;8.65;;;3.83;;
46755;SDS011;32506;52.826;-1.192;2023-07-02T02:54:21;10.48;;;3.90;;
46755;SDS011;32506;52.826;-1.192;2023-07-02T02:56:47;10.63;;;3.63;;
46755;SDS011;32506;52.826;-1.192;2023-07-02T02:59:12;14.07;;;4.78;;
46755;SDS011;32506;52.826;-1.192;2023-07-02T03:01:37;13.30;;;4.82;;
46755;SDS011;32506;52.826;-1.192;2023-07-02T03:04:03;15.23;;;4.25;;
46755;SDS011;32506;52.826;-1.192;2023-07-02T03:06:29;12.57;;;3.70;;
46755;SDS011;32506;52.826;-1.192;2023-07-02T03:08:55;7.45;;;3.72;;
46755;SDS011;32506;52.826;-1.192;2023-07-02T03:11:20;11.20;;;4.03;;
46755;SDS011;32506;52.826;-1.192;2023-07-02T03:13:46;10.30;;;3.63;;
46755;SDS011;32506;52.826;-1.192;2023-07-02T03:16:12;12.43;;;4.28;;
46755;SDS011;32506;52.826;-1.192;2023-07-02T03:18:37;10.38;;;4.15;;
46755;SDS011;32506;52.826;-1.192;2023-07-02T03:21:04;10.15;;;4.05;;
46755;SDS011;32506;52.826;-1.192;2023-07-02T03:23:29;12.82;;;4.28;;
46755;SDS011;32506;52.826;-1.192;2023-07-02T03:25:55;12.63;;;4.75;;
46755;SDS011;32506;52.826;-1.192;2023-07-02T03:28:20;15.15;;;4.15;;
46755;SDS011;32506;52.826;-1.192;2023-07-02T03:30:46;9.55;;;3.60;;
46755;SDS011;32506;52.826;-1.192;2023-07-02T03:33:11;11.40;;;4.43;;
46755;SDS011;32506;52.826;-1.192;2023-07-02T03:35:37;7.45;;;3.55;;
46755;SDS011;32506;52.826;-1.192;2023-07-02T03:38:03;12.25;;;3.95;;
46755;SDS011;32506;52.826;-1.192;2023-07-02T03:40:30;14.30;;;3.63;;
46755;SDS011;32506;52.826;-1.192;2023-07-02T03:42:55;11.43;;;4.00;;
46755;SDS011;32506;52.826;-1.192;2023-07-02T03:45:20;8.55;;;3.72;;
46755;SDS011;32506;52.826;-1.192;2023-07-02T03:47:46;11.02;;;3.85;;
46755;SDS011;32506;52.826;-1.192;2023-07-02T03:50:12;7.78;;;3.83;;
46755;SDS011;32506;52.826;-1.192;2023-07-02T03:52:37;14.32;;;3.85;;
46755;SDS011;32506;52.826;-1.192;2023-07-02T03:55:03;11.52;;;3.97;;
46755;SDS011;32506;52.826;-1.192;2023-07-02T03:57:29;14.70;;;4.32;;
46755;SDS011;32506;52.826;-1.192;2023-07-02T03:59:55;12.68;;;4.63;;
46755;SDS011;32506;52.826;-1.192;2023-07-02T04:02:20;13.02;;;3.80;;
46755;SDS011;32506;52.826;-1.192;2023-07-02T04:04:46;10.52;;;3.85;;
46755;SDS011;32506;52.826;-1.192;2023-07-02T04:07:11;12.90;;;4.20;;
46755;SDS011;32506;52.826;-1.192;2023-07-02T04:09:37;12.10;;;4.32;;
46755;SDS011;32506;52.826;-1.192;2023-07-02T04:12:03;13.32;;;4.50;;
46755;SDS011;32506;52.826;-1.192;2023-07-02T04:14:29;13.20;;;4.07;;
46755;SDS011;32506;52.826;-1.192;2023-07-02T04:16:54;9.57;;;3.95;;
46755;SDS011;32506;52.826;-1.192;2023-07-02T04:19:20;15.90;;;4.38;;
46755;SDS011;32506;52.826;-1.192;2023-07-02T04:21:45;12.13;;;3.97;;
46755;SDS011;32506;52.826;-1.192;2023-07-02T04:24:10;13.63;;;3.90;;
46755;SDS011;32506;52.826;-1.192;2023-07-02T04:26:36;12.02;;;4.55;;
46755;SDS011;32506;52.826;-1.192;2023-07-02T04:29:02;12.10;;;4.20;;
46755;SDS011;32506;52.826;-1.192;2023-07-02T04:31:27;8.98;;;3.88;;
46755;SDS011;32506;52.826;-1.192;2023-07-02T04:33:53;14.27;;;4.35;;
46755;SDS011;32506;52.826;-1.192;2023-07-02T04:36:18;9.43;;;4.13;;
46755;SDS011;32506;52.826;-1.192;2023-07-02T04:38:44;12.60;;;4.03;;
46755;SDS011;32506;52.826;-1.192;2023-07-02T04:41:09;12.88;;;4.25;;
46755;SDS011;32506;52.826;-1.192;2023-07-02T04:43:35;13.70;;;4.20;;
46755;SDS011;32506;52.826;-1.192;2023-07-02T04:46:01;9.88;;;4.00;;
46755;SDS011;32506;52.826;-1.192;2023-07-02T04:48:27;13.95;;;3.80;;
46755;SDS011;32506;52.826;-1.192;2023-07-02T04:50:53;10.48;;;3.95;;
46755;SDS011;32506;52.826;-1.192;2023-07-02T04:53:18;8.98;;;3.83;;
46755;SDS011;32506;52.826;-1.192;2023-07-02T04:55:43;10.18;;;3.78;;
46755;SDS011;32506;52.826;-1.192;2023-07-02T04:58:09;9.45;;;3.70;;
46755;SDS011;32506;52.826;-1.192;2023-07-02T05:00:34;10.48;;;3.85;;
46755;SDS011;32506;52.826;-1.192;2023-07-02T05:03:00;13.48;;;4.85;;
46755;SDS011;32506;52.826;-1.192;2023-07-02T05:05:25;10.65;;;3.65;;
46755;SDS011;32506;52.826;-1.192;2023-07-02T05:07:51;9.82;;;3.63;;
46755;SDS011;32506;52.826;-1.192;2023-07-02T05:10:16;11.63;;;4.10;;
46755;SDS011;32506;52.826;-1.192;2023-07-02T05:12:42;10.25;;;3.90;;
46755;SDS011;32506;52.826;-1.192;2023-07-02T05:15:07;10.40;;;3.63;;
46755;SDS011;32506;52.826;-1.192;2023-07-02T05:17:33;10.10;;;3.35;;
46755;SDS011;32506;52.826;-1.192;2023-07-02T05:20:01;9.60;;;4.43;;
46755;SDS011;32506;52.826;-1.192;2023-07-02T05:22:28;12.38;;;4.38;;
46755;SDS011;32506;52.826;-1.192;2023-07-02T05:24:53;11.00;;;3.95;;
46755;SDS011;32506;52.826;-1.192;2023-07-02T05:27:19;10.18;;;3.42;;
46755;SDS011;32506;52.826;-1.192;2023-07-02T05:29:44;11.57;;;3.88;;
46755;SDS011;32506;52.826;-1.192;2023-07-02T05:32:10;9.93;;;3.95;;
46755;SDS011;32506;52.826;-1.192;2023-07-02T05:34:35;10.32;;;3.55;;
46755;SDS011;32506;52.826;-1.192;2023-07-02T05:37:00;10.57;;;3.97;;
46755;SDS011;32506;52.826;-1.192;2023-07-02T05:39:26;8.77;;;3.58;;
46755;SDS011;32506;52.826;-1.192;2023-07-02T05:41:51;10.65;;;4.43;;
46755;SDS011;32506;52.826;-1.192;2023-07-02T05:44:17;9.32;;;3.90;;
46755;SDS011;32506;52.826;-1.192;2023-07-02T05:46:42;10.38;;;4.57;;
46755;SDS011;32506;52.826;-1.192;2023-07-02T05:49:08;8.57;;;4.13;;
46755;SDS011;32506;52.826;-1.192;2023-07-02T05:51:33;9.02;;;3.65;;
46755;SDS011;32506;52.826;-1.192;2023-07-02T05:53:58;12.13;;;3.65;;
46755;SDS011;32506;52.826;-1.192;2023-07-02T05:56:24;9.00;;;3.25;;
46755;SDS011;32506;52.826;-1.192;2023-07-02T05:58:49;11.70;;;3.38;;
46755;SDS011;32506;52.826;-1.192;2023-07-02T06:01:15;12.43;;;3.78;;
46755;SDS011;32506;52.826;-1.192;2023-07-02T06:03:41;9.48;;;3.47;;
46755;SDS011;32506;52.826;-1.192;2023-07-02T06:06:08;10.95;;;3.80;;
46755;SDS011;32506;52.826;-1.192;2023-07-02T06:08:34;10.00;;;3.58;;
46755;SDS011;32506;52.826;-1.192;2023-07-02T06:10:59;15.10;;;3.78;;
46755;SDS011;32506;52.826;-1.192;2023-07-02T06:13:25;11.00;;;3.67;;
46755;SDS011;32506;52.826;-1.192;2023-07-02T06:15:50;8.80;;;3.33;;
46755;SDS011;32506;52.826;-1.192;2023-07-02T06:18:16;9.60;;;3.40;;
46755;SDS011;32506;52.826;-1.192;2023-07-02T06:20:42;9.07;;;3.22;;
46755;SDS011;32506;52.826;-1.192;2023-07-02T06:23:08;8.02;;;3.13;;
46755;SDS011;32506;52.826;-1.192;2023-07-02T06:25:33;9.95;;;3.70;;
46755;SDS011;32506;52.826;-1.192;2023-07-02T06:27:59;11.60;;;3.70;;
46755;SDS011;32506;52.826;-1.192;2023-07-02T06:30:25;8.50;;;3.33;;
46755;SDS011;32506;52.826;-1.192;2023-07-02T06:32:51;10.35;;;3.90;;
46755;SDS011;32506;52.826;-1.192;2023-07-02T06:35:17;8.27;;;3.35;;
46755;SDS011;32506;52.826;-1.192;2023-07-02T06:37:42;9.73;;;3.50;;
46755;SDS011;32506;52.826;-1.192;2023-07-02T06:40:08;8.93;;;3.78;;
46755;SDS011;32506;52.826;-1.192;2023-07-02T06:42:34;11.18;;;4.68;;
46755;SDS011;32506;52.826;-1.192;2023-07-02T06:45:03;10.63;;;3.20;;
46755;SDS011;32506;52.826;-1.192;2023-07-02T06:47:30;10.32;;;3.60;;
46755;SDS011;32506;52.826;-1.192;2023-07-02T06:49:55;9.25;;;3.53;;
46755;SDS011;32506;52.826;-1.192;2023-07-02T06:52:21;9.85;;;3.28;;
46755;SDS011;32506;52.826;-1.192;2023-07-02T06:54:46;12.00;;;3.50;;
46755;SDS011;32506;52.826;-1.192;2023-07-02T06:57:15;9.45;;;3.10;;
46755;SDS011;32506;52.826;-1.192;2023-07-02T06:59:40;8.80;;;3.88;;
46755;SDS011;32506;52.826;-1.192;2023-07-02T07:02:06;9.63;;;3.17;;
46755;SDS011;32506;52.826;-1.192;2023-07-02T07:04:31;11.90;;;3.38;;
46755;SDS011;32506;52.826;-1.192;2023-07-02T07:06:57;9.15;;;3.72;;
46755;SDS011;32506;52.826;-1.192;2023-07-02T07:09:23;11.50;;;3.25;;
46755;SDS011;32506;52.826;-1.192;2023-07-02T07:11:48;12.23;;;3.38;;
46755;SDS011;32506;52.826;-1.192;2023-07-02T07:14:14;9.93;;;3.78;;
46755;SDS011;32506;52.826;-1.192;2023-07-02T07:16:40;12.32;;;3.50;;
46755;SDS011;32506;52.826;-1.192;2023-07-02T07:19:05;8.95;;;3.25;;
46755;SDS011;32506;52.826;-1.192;2023-07-02T07:21:32;10.25;;;3.20;;
46755;SDS011;32506;52.826;-1.192;2023-07-02T07:23:58;9.20;;;3.30;;
46755;SDS011;32506;52.826;-1.192;2023-07-02T07:26:24;9.60;;;3.60;;
46755;SDS011;32506;52.826;-1.192;2023-07-02T07:28:49;9.05;;;3.25;;
46755;SDS011;32506;52.826;-1.192;2023-07-02T07:31:15;9.57;;;3.80;;
46755;SDS011;32506;52.826;-1.192;2023-07-02T07:33:40;8.50;;;3.20;;
46755;SDS011;32506;52.826;-1.192;2023-07-02T07:36:06;10.10;;;4.07;;
46755;SDS011;32506;52.826;-1.192;2023-07-02T07:38:31;12.48;;;3.70;;
46755;SDS011;32506;52.826;-1.192;2023-07-02T07:40:57;9.73;;;2.92;;
46755;SDS011;32506;52.826;-1.192;2023-07-02T07:43:22;11.07;;;3.10;;
46755;SDS011;32506;52.826;-1.192;2023-07-02T07:45:48;11.93;;;3.45;;
46755;SDS011;32506;52.826;-1.192;2023-07-02T07:48:13;10.80;;;3.50;;
46755;SDS011;32506;52.826;-1.192;2023-07-02T07:50:40;10.43;;;3.20;;
46755;SDS011;32506;52.826;-1.192;2023-07-02T07:53:05;11.68;;;3.80;;
46755;SDS011;32506;52.826;-1.192;2023-07-02T07:55:31;11.23;;;3.70;;
46755;SDS011;32506;52.826;-1.192;2023-07-02T07:57:56;10.32;;;3.40;;
46755;SDS011;32506;52.826;-1.192;2023-07-02T08:00:22;12.60;;;3.35;;
46755;SDS011;32506;52.826;-1.192;2023-07-02T08:02:49;10.00;;;3.05;;
46755;SDS011;32506;52.826;-1.192;2023-07-02T08:05:17;9.55;;;2.95;;
46755;SDS011;32506;52.826;-1.192;2023-07-02T08:07:43;10.20;;;3.45;;
46755;SDS011;32506;52.826;-1.192;2023-07-02T08:10:08;13.48;;;3.92;;
46755;SDS011;32506;52.826;-1.192;2023-07-02T08:12:34;9.50;;;3.20;;
46755;SDS011;32506;52.826;-1.192;2023-07-02T08:15:00;16.27;;;4.18;;
46755;SDS011;32506;52.826;-1.192;2023-07-02T08:17:25;10.30;;;3.20;;
46755;SDS011;32506;52.826;-1.192;2023-07-02T08:19:51;8.43;;;2.63;;
46755;SDS011;32506;52.826;-1.192;2023-07-02T08:22:16;7.72;;;2.97;;
46755;SDS011;32506;52.826;-1.192;2023-07-02T08:24:42;9.48;;;3.45;;
46755;SDS011;32506;52.826;-1.192;2023-07-02T08:27:08;10.43;;;2.60;;
46755;SDS011;32506;52.826;-1.192;2023-07-02T08:29:33;10.55;;;2.80;;
46755;SDS011;32506;52.826;-1.192;2023-07-02T08:31:59;9.32;;;3.00;;
46755;SDS011;32506;52.826;-1.192;2023-07-02T08:34:24;10.77;;;2.97;;
46755;SDS011;32506;52.826;-1.192;2023-07-02T08:36:50;10.70;;;3.08;;
46755;SDS011;32506;52.826;-1.192;2023-07-02T08:39:16;9.70;;;2.92;;
46755;SDS011;32506;52.826;-1.192;2023-07-02T08:41:43;8.20;;;2.42;;
46755;SDS011;32506;52.826;-1.192;2023-07-02T08:44:09;11.30;;;3.42;;
46755;SDS011;32506;52.826;-1.192;2023-07-02T08:46:35;8.43;;;2.45;;
46755;SDS011;32506;52.826;-1.192;2023-07-02T08:49:01;12.75;;;3.38;;
46755;SDS011;32506;52.826;-1.192;2023-07-02T08:51:26;6.15;;;2.55;;
46755;SDS011;32506;52.826;-1.192;2023-07-02T08:53:52;8.85;;;2.33;;
46755;SDS011;32506;52.826;-1.192;2023-07-02T08:56:17;7.68;;;2.50;;
46755;SDS011;32506;52.826;-1.192;2023-07-02T08:58:43;8.57;;;2.30;;
46755;SDS011;32506;52.826;-1.192;2023-07-02T09:01:10;6.65;;;1.98;;
46755;SDS011;32506;52.826;-1.192;2023-07-02T09:03:39;9.77;;;2.40;;
46755;SDS011;32506;52.826;-1.192;2023-07-02T09:06:07;5.60;;;2.33;;
46755;SDS011;32506;52.826;-1.192;2023-07-02T09:08:33;7.03;;;2.47;;
46755;SDS011;32506;52.826;-1.192;2023-07-02T09:11:09;9.80;;;2.85;;
46755;SDS011;32506;52.826;-1.192;2023-07-02T09:13:51;9.52;;;2.58;;
46755;SDS011;32506;52.826;-1.192;2023-07-02T09:21:37;7.47;;;2.70;;
46755;SDS011;32506;52.826;-1.192;2023-07-02T09:24:13;8.20;;;2.80;;
46755;SDS011;32506;52.826;-1.192;2023-07-02T09:26:52;7.05;;;2.00;;
46755;SDS011;32506;52.826;-1.192;2023-07-02T09:32:02;7.93;;;2.30;;
46755;SDS011;32506;52.826;-1.192;2023-07-02T09:34:32;5.95;;;2.42;;
46755;SDS011;32506;52.826;-1.192;2023-07-02T09:36:59;6.32;;;1.98;;
46755;SDS011;32506;52.826;-1.192;2023-07-02T09:39:30;8.45;;;2.67;;
46755;SDS011;32506;52.826;-1.192;2023-07-02T09:41:57;8.45;;;2.20;;
46755;SDS011;32506;52.826;-1.192;2023-07-02T09:44:27;6.45;;;2.10;;
46755;SDS011;32506;52.826;-1.192;2023-07-02T09:52:03;7.40;;;2.47;;
46755;SDS011;32506;52.826;-1.192;2023-07-02T09:54:30;5.68;;;2.00;;
46755;SDS011;32506;52.826;-1.192;2023-07-02T09:56:56;4.03;;;1.55;;
46755;SDS011;32506;52.826;-1.192;2023-07-02T09:59:23;5.25;;;2.05;;
46755;SDS011;32506;52.826;-1.192;2023-07-02T10:01:49;6.85;;;2.20;;
46755;SDS011;32506;52.826;-1.192;2023-07-02T10:04:15;8.30;;;2.33;;
46755;SDS011;32506;52.826;-1.192;2023-07-02T10:09:16;5.88;;;1.60;;
46755;SDS011;32506;52.826;-1.192;2023-07-02T10:11:42;5.05;;;1.63;;
46755;SDS011;32506;52.826;-1.192;2023-07-02T10:14:09;7.07;;;2.35;;
46755;SDS011;32506;52.826;-1.192;2023-07-02T10:16:34;5.05;;;1.75;;
46755;SDS011;32506;52.826;-1.192;2023-07-02T10:19:13;6.43;;;2.10;;
46755;SDS011;32506;52.826;-1.192;2023-07-02T10:21:38;5.97;;;1.70;;
46755;SDS011;32506;52.826;-1.192;2023-07-02T10:24:14;5.45;;;2.08;;
46755;SDS011;32506;52.826;-1.192;2023-07-02T10:26:59;4.45;;;1.88;;
46755;SDS011;32506;52.826;-1.192;2023-07-02T10:29:26;4.85;;;1.52;;
46755;SDS011;32506;52.826;-1.192;2023-07-02T10:31:56;5.10;;;1.92;;
46755;SDS011;32506;52.826;-1.192;2023-07-02T10:34:31;5.78;;;1.73;;
46755;SDS011;32506;52.826;-1.192;2023-07-02T10:36:59;5.80;;;1.85;;
46755;SDS011;32506;52.826;-1.192;2023-07-02T10:39:26;5.88;;;1.88;;
46755;SDS011;32506;52.826;-1.192;2023-07-02T10:41:51;7.05;;;1.80;;
46755;SDS011;32506;52.826;-1.192;2023-07-02T10:44:17;4.65;;;1.48;;
46755;SDS011;32506;52.826;-1.192;2023-07-02T10:46:46;4.20;;;1.40;;
46755;SDS011;32506;52.826;-1.192;2023-07-02T10:49:13;5.68;;;1.50;;
46755;SDS011;32506;52.826;-1.192;2023-07-02T10:51:43;6.50;;;2.00;;
46755;SDS011;32506;52.826;-1.192;2023-07-02T10:54:08;6.32;;;2.15;;
46755;SDS011;32506;52.826;-1.192;2023-07-02T10:56:34;4.45;;;1.63;;
46755;SDS011;32506;52.826;-1.192;2023-07-02T10:59:00;3.83;;;1.55;;
46755;SDS011;32506;52.826;-1.192;2023-07-02T11:01:27;6.93;;;2.20;;
46755;SDS011;32506;52.826;-1.192;2023-07-02T11:04:03;6.90;;;2.03;;
46755;SDS011;32506;52.826;-1.192;2023-07-02T11:06:30;9.38;;;2.33;;
46755;SDS011;32506;52.826;-1.192;2023-07-02T11:08:58;5.95;;;1.50;;
46755;SDS011;32506;52.826;-1.192;2023-07-02T11:11:24;6.85;;;2.25;;
46755;SDS011;32506;52.826;-1.192;2023-07-02T11:13:51;11.93;;;2.10;;
46755;SDS011;32506;52.826;-1.192;2023-07-02T11:16:21;6.30;;;2.22;;
46755;SDS011;32506;52.826;-1.192;2023-07-02T11:18:49;12.55;;;2.33;;
46755;SDS011;32506;52.826;-1.192;2023-07-02T11:21:15;7.25;;;2.67;;
46755;SDS011;32506;52.826;-1.192;2023-07-02T11:23:41;8.18;;;2.17;;
46755;SDS011;32506;52.826;-1.192;2023-07-02T11:26:06;5.57;;;2.20;;
46755;SDS011;32506;52.826;-1.192;2023-07-02T11:28:32;8.50;;;2.33;;
46755;SDS011;32506;52.826;-1.192;2023-07-02T11:30:59;8.80;;;2.17;;
46755;SDS011;32506;52.826;-1.192;2023-07-02T11:33:36;6.38;;;1.90;;
46755;SDS011;32506;52.826;-1.192;2023-07-02T11:36:04;5.75;;;1.90;;
46755;SDS011;32506;52.826;-1.192;2023-07-02T11:38:32;5.22;;;2.03;;
46755;SDS011;32506;52.826;-1.192;2023-07-02T11:40:58;7.78;;;1.60;;
46755;SDS011;32506;52.826;-1.192;2023-07-02T11:43:25;6.38;;;1.70;;
46755;SDS011;32506;52.826;-1.192;2023-07-02T11:45:51;7.00;;;1.60;;
46755;SDS011;32506;52.826;-1.192;2023-07-02T11:48:16;4.80;;;1.52;;
46755;SDS011;32506;52.826;-1.192;2023-07-02T11:50:42;5.53;;;1.75;;
46755;SDS011;32506;52.826;-1.192;2023-07-02T11:53:07;6.32;;;1.65;;
46755;SDS011;32506;52.826;-1.192;2023-07-02T11:55:33;4.38;;;1.52;;
46755;SDS011;32506;52.826;-1.192;2023-07-02T11:57:59;7.10;;;2.10;;
46755;SDS011;32506;52.826;-1.192;2023-07-02T12:00:24;7.28;;;1.70;;
46755;SDS011;32506;52.826;-1.192;2023-07-02T12:02:50;7.50;;;2.45;;
46755;SDS011;32506;52.826;-1.192;2023-07-02T12:05:16;5.20;;;1.50;;
46755;SDS011;32506;52.826;-1.192;2023-07-02T12:07:42;7.32;;;1.98;;
46755;SDS011;32506;52.826;-1.192;2023-07-02T12:10:07;7.22;;;1.80;;
46755;SDS011;32506;52.826;-1.192;2023-07-02T12:12:33;5.00;;;2.00;;
46755;SDS011;32506;52.826;-1.192;2023-07-02T12:14:58;7.18;;;1.40;;
46755;SDS011;32506;52.826;-1.192;2023-07-02T12:17:24;5.55;;;1.73;;
46755;SDS011;32506;52.826;-1.192;2023-07-02T12:19:49;4.88;;;1.40;;
46755;SDS011;32506;52.826;-1.192;2023-07-02T12:22:15;7.68;;;1.58;;
46755;SDS011;32506;52.826;-1.192;2023-07-02T12:24:42;7.05;;;1.60;;
46755;SDS011;32506;52.826;-1.192;2023-07-02T12:27:08;6.13;;;1.75;;
46755;SDS011;32506;52.826;-1.192;2023-07-02T12:29:35;6.15;;;1.70;;
46755;SDS011;32506;52.826;-1.192;2023-07-02T12:32:01;8.02;;;2.30;;
46755;SDS011;32506;52.826;-1.192;2023-07-02T12:34:26;5.88;;;1.75;;
46755;SDS011;32506;52.826;-1.192;2023-07-02T12:36:54;4.22;;;1.15;;
46755;SDS011;32506;52.826;-1.192;2023-07-02T12:39:19;3.85;;;1.20;;
46755;SDS011;32506;52.826;-1.192;2023-07-02T12:41:45;5.07;;;1.30;;
46755;SDS011;32506;52.826;-1.192;2023-07-02T12:44:10;6.18;;;1.58;;
46755;SDS011;32506;52.826;-1.192;2023-07-02T12:46:36;4.43;;;1.10;;
46755;SDS011;32506;52.826;-1.192;2023-07-02T12:49:01;7.50;;;1.63;;
46755;SDS011;32506;52.826;-1.192;2023-07-02T12:51:27;5.45;;;1.70;;
46755;SDS011;32506;52.826;-1.192;2023-07-02T12:53:52;3.42;;;1.20;;
46755;SDS011;32506;52.826;-1.192;2023-07-02T12:56:17;5.28;;;1.50;;
46755;SDS011;32506;52.826;-1.192;2023-07-02T12:58:43;6.57;;;1.60;;
46755;SDS011;32506;52.826;-1.192;2023-07-02T13:01:08;7.13;;;2.03;;
46755;SDS011;32506;52.826;-1.192;2023-07-02T13:03:34;4.90;;;1.63;;
46755;SDS011;32506;52.826;-1.192;2023-07-02T13:05:59;6.90;;;1.70;;
46755;SDS011;32506;52.826;-1.192;2023-07-02T13:08:25;5.93;;;1.80;;
46755;SDS011;32506;52.826;-1.192;2023-07-02T13:10:50;5.22;;;1.73;;
46755;SDS011;32506;52.826;-1.192;2023-07-02T13:13:16;7.03;;;2.08;;
46755;SDS011;32506;52.826;-1.192;2023-07-02T13:15:41;6.22;;;1.50;;
46755;SDS011;32506;52.826;-1.192;2023-07-02T13:18:06;4.78;;;1.23;;
46755;SDS011;32506;52.826;-1.192;2023-07-02T13:20:32;5.03;;;1.23;;
46755;SDS011;32506;52.826;-1.192;2023-07-02T13:22:57;4.78;;;1.27;;
46755;SDS011;32506;52.826;-1.192;2023-07-02T13:25:23;5.22;;;1.50;;
46755;SDS011;32506;52.826;-1.192;2023-07-02T13:27:49;6.03;;;1.55;;
46755;SDS011;32506;52.826;-1.192;2023-07-02T13:30:14;4.72;;;1.45;;
46755;SDS011;32506;52.826;-1.192;2023-07-02T13:32:40;6.55;;;1.55;;
46755;SDS011;32506;52.826;-1.192;2023-07-02T13:35:05;7.45;;;1.63;;
46755;SDS011;32506;52.826;-1.192;2023-07-02T13:37:31;4.07;;;1.20;;
46755;SDS011;32506;52.826;-1.192;2023-07-02T13:39:56;4.28;;;1.05;;
46755;SDS011;32506;52.826;-1.192;2023-07-02T13:42:22;5.60;;;1.85;;
46755;SDS011;32506;52.826;-1.192;2023-07-02T13:44:47;3.95;;;1.17;;
46755;SDS011;32506;52.826;-1.192;2023-07-02T13:47:13;3.97;;;1.42;;
46755;SDS011;32506;52.826;-1.192;2023-07-02T13:49:38;4.10;;;1.20;;
46755;SDS011;32506;52.826;-1.192;2023-07-02T13:52:04;5.20;;;1.33;;
46755;SDS011;32506;52.826;-1.192;2023-07-02T13:54:33;5.05;;;1.10;;
46755;SDS011;32506;52.826;-1.192;2023-07-02T13:56:58;6.88;;;2.13;;
46755;SDS011;32506;52.826;-1.192;2023-07-02T13:59:24;5.22;;;1.42;;
46755;SDS011;32506;52.826;-1.192;2023-07-02T14:01:49;5.28;;;1.30;;
46755;SDS011;32506;52.826;-1.192;2023-07-02T14:04:15;3.92;;;1.00;;
46755;SDS011;32506;52.826;-1.192;2023-07-02T14:06:42;4.75;;;1.27;;
46755;SDS011;32506;52.826;-1.192;2023-07-02T14:09:08;3.63;;;1.35;;
46755;SDS011;32506;52.826;-1.192;2023-07-02T14:11:35;4.18;;;1.45;;
46755;SDS011;32506;52.826;-1.192;2023-07-02T14:16:31;3.15;;;1.00;;
46755;SDS011;32506;52.826;-1.192;2023-07-02T14:18:57;4.53;;;1.10;;
46755;SDS011;32506;52.826;-1.192;2023-07-02T14:21:22;5.90;;;1.45;;
46755;SDS011;32506;52.826;-1.192;2023-07-02T14:23:48;4.85;;;1.30;;
46755;SDS011;32506;52.826;-1.192;2023-07-02T14:26:14;6.40;;;1.15;;
46755;SDS011;32506;52.826;-1.192;2023-07-02T14:28:39;8.15;;;1.35;;
46755;SDS011;32506;52.826;-1.192;2023-07-02T14:31:05;7.28;;;1.52;;
46755;SDS011;32506;52.826;-1.192;2023-07-02T14:33:34;4.90;;;1.02;;
46755;SDS011;32506;52.826;-1.192;2023-07-02T14:36:00;3.67;;;1.13;;
46755;SDS011;32506;52.826;-1.192;2023-07-02T14:38:26;6.40;;;1.17;;
46755;SDS011;32506;52.826;-1.192;2023-07-02T14:40:53;5.65;;;1.55;;
46755;SDS011;32506;52.826;-1.192;2023-07-02T14:43:19;5.15;;;1.13;;